Time;durP1;ratioP1;P1;durP2;ratioP2;P2;SDS_P1;SDS_P2;PMS_P1;PMS_P2;Temp;Humidity;BMP_temperature;BMP_pressure;BME280_temperature;BME280_humidity;BME280_pressure;Samples;Min_cycle;Max_cycle;Signal;HPM_P1;HPM_P2
2021/01/01 00:03:59;;;;;;;15.83;13.50;;;;;;;5.55;63.49;96710.06;8270241;28;20249;-79
2021/01/01 00:08:01;;;;;;;16.13;14.53;;;;;;;5.07;65.14;96717.25;8284254;28;20235;-78
2021/01/01 00:12:03;;;;;;;13.80;11.97;;;;;;;5.22;64.87;96714.94;8301983;28;20220;-78
2021/01/01 00:16:06;;;;;;;14.47;12.97;;;;;;;4.99;65.70;96706.50;8302348;28;20239;-78
2021/01/01 00:20:10;;;;;;;15.63;13.93;;;;;;;5.09;65.23;96707.75;8301588;28;20229;-78
2021/01/01 00:24:12;;;;;;;13.40;12.00;;;;;;;5.03;65.44;96707.19;8303141;28;20216;-79
2021/01/01 00:28:14;;;;;;;14.70;13.20;;;;;;;5.65;63.16;96718.19;8299122;28;20424;-79
2021/01/01 00:32:17;;;;;;;17.53;15.13;;;;;;;5.12;65.01;96717.06;8301449;28;20208;-79
2021/01/01 00:36:20;;;;;;;17.70;15.47;;;;;;;5.23;64.86;96717.44;8302162;28;20201;-78
2021/01/01 00:40:22;;;;;;;20.00;16.67;;;;;;;5.07;65.65;96716.44;8301259;28;20225;-78
2021/01/01 00:44:24;;;;;;;23.30;18.30;;;;;;;5.06;65.96;96728.44;8301946;28;20259;-78
2021/01/01 00:48:26;;;;;;;19.87;17.53;;;;;;;5.32;64.94;96712.81;8301017;28;20212;-78
2021/01/01 00:52:28;;;;;;;24.80;19.23;;;;;;;5.26;65.24;96712.19;8300588;28;20228;-78
2021/01/01 00:56:31;;;;;;;21.27;17.10;;;;;;;5.34;65.06;96713.59;8300771;28;20197;-78
2021/01/01 01:00:32;;;;;;;20.93;17.53;;;;;;;5.24;65.36;96708.00;8301165;28;20225;-78
2021/01/01 01:04:35;;;;;;;20.27;16.77;;;;;;;5.41;64.63;96712.44;8300812;28;20216;-79
2021/01/01 01:08:36;;;;;;;20.67;15.23;;;;;;;5.44;64.87;96720.81;8302131;28;20649;-78
2021/01/01 01:12:38;;;;;;;21.87;17.83;;;;;;;5.34;65.35;96719.53;8301711;28;20232;-78
2021/01/01 01:16:40;;;;;;;21.70;17.63;;;;;;;5.45;65.00;96727.63;8300121;28;20189;-78
2021/01/01 01:20:43;;;;;;;24.17;19.47;;;;;;;5.50;64.71;96735.09;8300664;28;20194;-78
2021/01/01 01:24:44;;;;;;;36.17;27.20;;;;;;;5.13;65.78;96730.75;8296883;28;20193;-78
2021/01/01 01:28:47;;;;;;;31.20;23.67;;;;;;;5.36;65.43;96732.31;8303172;28;20193;-78
2021/01/01 01:32:49;;;;;;;25.00;20.73;;;;;;;5.35;65.18;96730.63;8303509;28;20197;-78
2021/01/01 01:36:52;;;;;;;29.90;21.80;;;;;;;5.32;65.29;96729.06;8301641;28;20276;-78
2021/01/01 01:40:54;;;;;;;23.30;17.73;;;;;;;5.35;65.34;96731.50;8301417;28;20213;-78
2021/01/01 01:44:55;;;;;;;23.03;18.40;;;;;;;5.40;65.08;96739.81;8302245;28;20558;-78
2021/01/01 01:48:57;;;;;;;23.80;19.20;;;;;;;5.40;65.37;96736.41;8302502;28;20208;-78
2021/01/01 01:53:00;;;;;;;23.40;19.37;;;;;;;5.45;65.06;96739.63;8304046;28;20197;-78
2021/01/01 01:57:02;;;;;;;19.70;16.90;;;;;;;5.42;65.56;96747.44;8294108;28;20208;-78
2021/01/01 02:01:04;;;;;;;17.10;15.03;;;;;;;5.49;65.41;96754.00;8299179;28;20197;-78
2021/01/01 02:05:08;;;;;;;17.63;15.63;;;;;;;5.17;66.23;96758.75;8307008;28;20197;-78
2021/01/01 02:09:12;;;;;;;15.23;12.80;;;;;;;5.24;66.57;96759.34;8299439;28;20208;-78
2021/01/01 02:13:14;;;;;;;13.43;11.10;;;;;;;5.55;65.30;96764.00;8306925;28;20233;-79
2021/01/01 02:17:16;;;;;;;10.17;9.17;;;;;;;5.65;64.78;96772.13;8307666;28;20228;-77
2021/01/01 02:21:18;;;;;;;10.17;9.27;;;;;;;5.68;64.85;96767.69;8306917;28;20208;-79
2021/01/01 02:25:21;;;;;;;9.90;8.90;;;;;;;5.69;64.61;96765.97;8306231;28;20197;-78
2021/01/01 02:29:23;;;;;;;8.90;8.10;;;;;;;5.68;64.41;96766.88;8305765;28;20208;-78
2021/01/01 02:33:25;;;;;;;10.20;9.20;;;;;;;5.52;64.93;96766.72;8304771;28;20515;-77
2021/01/01 02:37:27;;;;;;;9.63;8.63;;;;;;;5.70;64.65;96761.66;8303895;28;20221;-78
2021/01/01 02:41:29;;;;;;;9.37;8.47;;;;;;;5.67;64.80;96763.47;8303184;28;20197;-78
2021/01/01 02:45:31;;;;;;;10.90;9.80;;;;;;;5.70;64.36;96752.22;8304182;28;20201;-78
2021/01/01 02:49:33;;;;;;;10.47;9.37;;;;;;;5.72;64.49;96753.00;8303383;28;20209;-78
2021/01/01 02:53:34;;;;;;;10.47;9.40;;;;;;;5.76;64.48;96749.38;8303316;28;20217;-78
2021/01/01 02:57:37;;;;;;;9.70;8.80;;;;;;;5.74;64.77;96758.06;8303587;28;20236;-78
2021/01/01 03:01:38;;;;;;;11.30;10.20;;;;;;;5.73;64.89;96764.09;8303550;28;20212;-78
2021/01/01 03:05:40;;;;;;;12.17;10.97;;;;;;;5.63;64.99;96764.50;8301852;28;20201;-78
2021/01/01 03:09:42;;;;;;;13.23;11.90;;;;;;;5.49;65.35;96759.97;8303302;28;20209;-78
2021/01/01 03:13:45;;;;;;;12.47;11.27;;;;;;;5.38;66.09;96763.91;8302988;28;20248;-78
2021/01/01 03:17:46;;;;;;;14.07;12.67;;;;;;;5.22;65.98;96761.16;8303178;28;20681;-78
2021/01/01 03:21:48;;;;;;;12.93;11.63;;;;;;;5.08;66.46;96766.84;8302805;28;20205;-78
2021/01/01 03:25:50;;;;;;;11.17;10.07;;;;;;;5.32;65.94;96771.88;8304420;28;20212;-78
2021/01/01 03:29:52;;;;;;;11.60;10.47;;;;;;;5.21;66.20;96772.31;8302942;28;20227;-78
2021/01/01 03:33:54;;;;;;;12.20;10.97;;;;;;;5.16;66.89;96769.09;8303599;28;20225;-80
2021/01/01 03:37:56;;;;;;;11.30;10.20;;;;;;;5.50;65.69;96781.31;8307735;28;20225;-79
2021/01/01 03:41:57;;;;;;;11.73;10.63;;;;;;;5.42;65.60;96770.56;8306082;28;20201;-79
2021/01/01 03:46:00;;;;;;;11.63;10.43;;;;;;;5.59;64.83;96769.84;8306252;28;20213;-79
2021/01/01 03:50:02;;;;;;;10.93;9.83;;;;;;;5.66;64.88;96769.50;8307648;28;20664;-79
2021/01/01 03:54:04;;;;;;;9.93;9.03;;;;;;;5.49;65.01;96761.69;8306245;28;20197;-79
2021/01/01 03:58:06;;;;;;;10.13;9.10;;;;;;;5.65;64.44;96767.00;8306559;28;20225;-80
2021/01/01 04:02:09;;;;;;;10.23;9.23;;;;;;;5.79;64.21;96759.53;8307868;28;20648;-80
2021/01/01 04:06:11;;;;;;;10.37;9.27;;;;;;;5.72;64.19;96762.44;8307909;28;20205;-80
2021/01/01 04:10:13;;;;;;;10.00;9.10;;;;;;;5.84;64.14;96767.03;8308174;28;20216;-79
2021/01/01 04:14:15;;;;;;;10.63;9.53;;;;;;;5.67;64.05;96775.47;8308723;28;20245;-80
2021/01/01 04:18:17;;;;;;;10.50;9.40;;;;;;;5.78;63.88;96769.88;8308784;28;20582;-81
2021/01/01 04:22:19;;;;;;;10.23;9.27;;;;;;;5.68;64.54;96770.28;8321229;28;20212;-79
2021/01/01 04:26:25;;;;;;;10.73;9.80;;;;;;;5.77;64.20;96781.88;8314248;28;20607;-80
2021/01/01 04:30:26;;;;;;;10.13;9.17;;;;;;;5.73;64.25;96776.94;8306410;28;20216;-80
2021/01/01 04:34:29;;;;;;;11.10;10.10;;;;;;;5.69;64.23;96783.94;8305276;28;20571;-81
2021/01/01 04:38:31;;;;;;;10.03;9.17;;;;;;;5.74;64.29;96788.88;8305389;28;20225;-80
2021/01/01 04:42:33;;;;;;;9.80;8.90;;;;;;;5.87;64.05;96795.97;8305026;28;20201;-79
2021/01/01 04:46:37;;;;;;;10.83;9.83;;;;;;;5.93;63.72;96791.47;8306439;28;20205;-80
2021/01/01 04:50:40;;;;;;;9.97;9.07;;;;;;;5.86;63.98;96796.91;8306133;28;20216;-80
2021/01/01 04:54:45;;;;;;;10.40;9.40;;;;;;;5.92;63.97;96806.06;8306902;28;20201;-80
2021/01/01 04:58:47;;;;;;;10.83;9.83;;;;;;;5.93;64.16;96804.34;8307595;28;20664;-80
2021/01/01 05:02:50;;;;;;;10.60;9.60;;;;;;;5.85;63.88;96802.09;8305974;28;20208;-80
2021/01/01 05:06:52;;;;;;;15.43;10.10;;;;;;;5.89;64.31;96803.63;8307450;28;20205;-80
2021/01/01 05:10:54;;;;;;;10.67;9.67;;;;;;;5.83;63.88;96804.72;8307440;28;20279;-80
2021/01/01 05:14:56;;;;;;;10.43;9.47;;;;;;;5.87;63.81;96808.84;8307304;28;20240;-80
2021/01/01 05:18:58;;;;;;;11.37;10.37;;;;;;;5.88;63.70;96807.09;8306846;28;20221;-80
2021/01/01 05:23:17;;;;;;;12.80;10.90;;;;;;;5.90;64.13;96823.28;8306701;28;20209;-80
2021/01/01 05:27:19;;;;;;;13.80;9.37;;;;;;;5.74;64.55;96820.53;8301591;28;20212;-79
2021/01/01 05:31:22;;;;;;;10.67;9.57;;;;;;;5.66;64.37;96826.00;8306525;28;20208;-78
2021/01/01 05:35:28;;;;;;;11.70;10.50;;;;;;;5.82;64.15;96821.03;8306079;28;20212;-78
2021/01/01 05:39:31;;;;;;;10.87;9.87;;;;;;;5.80;64.20;96834.84;8306099;28;20240;-79
2021/01/01 05:43:32;;;;;;;10.53;9.53;;;;;;;5.68;64.25;96834.47;8305900;28;20209;-78
2021/01/01 05:47:34;;;;;;;10.77;9.77;;;;;;;5.69;64.64;96850.72;8307179;28;20216;-79
2021/01/01 05:51:36;;;;;;;10.77;9.80;;;;;;;5.72;64.49;96840.34;8315824;28;20205;-80
2021/01/01 05:55:39;;;;;;;12.70;11.50;;;;;;;5.58;64.64;96850.34;8322707;28;20205;-79
2021/01/01 05:59:41;;;;;;;13.30;12.10;;;;;;;5.46;64.71;96844.84;8327166;28;20221;-79
2021/01/01 06:03:43;;;;;;;12.70;11.40;;;;;;;5.49;65.07;96852.41;8312757;28;20201;-80
2021/01/01 06:07:46;;;;;;;11.47;10.47;;;;;;;5.54;65.13;96847.09;8310913;28;20212;-79
2021/01/01 06:11:58;;;;;;;11.53;10.43;;;;;;;5.41;65.18;96853.63;8311252;28;20224;-80
2021/01/01 06:16:02;;;;;;;11.40;10.43;;;;;;;5.35;65.89;96859.00;8311666;28;20713;-80
2021/01/01 06:20:05;;;;;;;11.50;10.50;;;;;;;5.38;65.49;96869.16;8312150;28;20229;-80
2021/01/01 06:24:13;;;;;;;12.07;10.97;;;;;;;5.38;65.57;96862.28;8314190;28;20205;-80
2021/01/01 06:28:15;;;;;;;12.73;11.53;;;;;;;4.97;66.45;96872.50;8314112;28;20190;-79
2021/01/01 06:32:20;;;;;;;13.43;12.17;;;;;;;4.84;67.68;96873.88;8317918;28;20208;-79
2021/01/01 06:36:37;;;;;;;12.37;11.27;;;;;;;5.26;66.23;96884.16;8318734;28;20202;-80
2021/01/01 06:40:39;;;;;;;13.13;11.70;;;;;;;5.09;66.65;96887.41;8304944;28;20233;-80
2021/01/01 06:44:42;;;;;;;12.00;10.90;;;;;;;5.29;66.07;96891.75;8306468;28;20201;-80
2021/01/01 06:48:44;;;;;;;12.50;11.30;;;;;;;5.34;65.88;96901.81;8304677;28;20209;-80
2021/01/01 06:52:46;;;;;;;13.07;11.80;;;;;;;4.97;66.80;96903.28;8305028;28;20201;-80
2021/01/01 06:56:48;;;;;;;12.80;11.57;;;;;;;5.04;66.81;96902.13;8305059;28;20208;-80
2021/01/01 07:00:56;;;;;;;14.50;13.07;;;;;;;4.95;66.79;96901.66;8304751;28;20236;-79
2021/01/01 07:04:57;;;;;;;12.00;10.90;;;;;;;5.13;66.08;96900.94;8304592;28;20193;-79
2021/01/01 07:08:59;;;;;;;12.10;11.00;;;;;;;5.12;66.10;96906.97;8305312;28;20208;-79
2021/01/01 07:13:17;;;;;;;12.33;11.23;;;;;;;5.22;65.70;96905.72;8304245;28;20229;-80
2021/01/01 07:17:19;;;;;;;13.13;11.90;;;;;;;4.98;66.37;96904.13;8305020;28;20553;-80
2021/01/01 07:21:21;;;;;;;14.17;12.77;;;;;;;4.85;66.80;96919.97;8303739;28;20225;-80
2021/01/01 07:25:35;;;;;;;13.40;12.20;;;;;;;5.13;66.08;96913.78;8304339;28;20661;-79
2021/01/01 07:29:37;;;;;;;13.93;12.53;;;;;;;5.22;65.48;96907.47;8305488;28;20241;-79
2021/01/01 07:33:40;;;;;;;13.43;12.13;;;;;;;5.17;65.18;96920.47;8304210;28;20213;-80
2021/01/01 07:37:44;;;;;;;12.90;11.60;;;;;;;5.21;65.32;96919.44;8304859;28;20648;-80
2021/01/01 07:41:45;;;;;;;13.90;12.43;;;;;;;5.12;65.79;96922.38;8305515;28;20197;-80
2021/01/01 07:45:47;;;;;;;13.33;11.97;;;;;;;5.18;65.72;96922.16;8304624;28;20216;-80
2021/01/01 07:49:50;;;;;;;13.87;12.57;;;;;;;5.35;64.98;96933.47;8303115;28;20201;-79
2021/01/01 07:53:58;;;;;;;14.37;12.97;;;;;;;5.14;65.75;96940.28;8303931;28;20212;-79
2021/01/01 07:58:00;;;;;;;14.00;12.70;;;;;;;5.28;65.04;96938.84;8305664;28;20549;-79
2021/01/01 08:02:03;;;;;;;16.00;14.40;;;;;;;4.93;66.98;96939.38;8306707;28;20197;-79
2021/01/01 08:06:06;;;;;;;14.67;13.00;;;;;;;5.26;65.38;96945.78;8308340;28;20375;-80
2021/01/01 08:10:09;;;;;;;16.10;14.50;;;;;;;5.02;66.08;96957.81;8307723;28;20521;-80
2021/01/01 08:14:11;;;;;;;16.57;14.90;;;;;;;4.93;66.15;96959.91;8306868;28;20658;-79
2021/01/01 08:18:15;;;;;;;14.80;13.50;;;;;;;4.84;67.03;96954.22;8307547;28;20232;-79
2021/01/01 08:22:23;;;;;;;15.80;14.20;;;;;;;5.13;66.21;96962.53;8307198;28;20578;-79
2021/01/01 08:26:26;;;;;;;15.37;13.97;;;;;;;5.28;65.66;96961.13;8307089;28;20655;-79
2021/01/01 08:30:28;;;;;;;15.53;13.83;;;;;;;5.42;65.41;96958.00;8307490;28;20205;-79
2021/01/01 08:34:29;;;;;;;14.47;13.07;;;;;;;5.40;65.65;96970.91;8308158;28;20197;-79
2021/01/01 08:38:32;;;;;;;14.60;13.30;;;;;;;5.45;65.43;96976.69;8309642;28;20229;-79
2021/01/01 08:42:35;;;;;;;17.70;15.90;;;;;;;5.36;66.21;96989.88;8310719;28;20197;-79
2021/01/01 08:46:37;;;;;;;17.00;15.13;;;;;;;5.38;65.80;96997.53;8308977;28;20573;-79
2021/01/01 08:50:46;;;;;;;17.23;15.43;;;;;;;5.17;66.04;97010.28;8304034;28;20208;-80
2021/01/01 08:54:49;;;;;;;15.73;14.23;;;;;;;5.41;66.01;97015.41;8305097;28;20213;-80
2021/01/01 08:59:08;;;;;;;15.80;14.30;;;;;;;5.43;65.69;97024.72;8305243;28;20228;-79
2021/01/01 09:03:11;;;;;;;19.27;17.30;;;;;;;5.13;66.99;97025.88;8308316;28;20209;-78
2021/01/01 09:07:14;;;;;;;18.03;16.23;;;;;;;5.48;66.27;97032.22;8308827;28;20208;-80
2021/01/01 09:11:23;;;;;;;15.57;14.07;;;;;;;5.54;65.85;97032.00;8301055;28;20229;-78
2021/01/01 09:15:29;;;;;;;17.80;16.00;;;;;;;5.24;67.22;97027.16;8304672;28;20252;-81
2021/01/01 09:19:31;;;;;;;17.60;15.87;;;;;;;5.54;66.48;97028.59;8313195;28;20255;-79
2021/01/01 09:23:32;;;;;;;16.30;14.70;;;;;;;5.60;65.90;97033.50;8292421;28;20206;-79
2021/01/01 09:27:36;;;;;;;17.73;16.03;;;;;;;5.43;66.62;97031.59;8276710;28;20641;-79
2021/01/01 09:31:38;;;;;;;18.33;16.53;;;;;;;5.52;65.84;97033.81;8277626;28;20229;-79
2021/01/01 09:35:40;;;;;;;18.70;16.87;;;;;;;5.49;66.78;97028.78;8305323;28;20213;-79
2021/01/01 09:39:42;;;;;;;16.50;14.77;;;;;;;5.66;65.67;97036.66;8313577;28;20922;-79
2021/01/01 09:43:44;;;;;;;17.57;15.87;;;;;;;5.81;65.77;97042.91;8313914;28;20232;-79
2021/01/01 09:47:47;;;;;;;16.90;15.40;;;;;;;5.65;65.79;97042.69;8312455;28;20209;-79
2021/01/01 09:51:48;;;;;;;16.90;15.20;;;;;;;5.82;65.91;97056.59;8307894;28;20562;-80
2021/01/01 09:56:09;;;;;;;16.70;15.13;;;;;;;6.03;65.17;97053.19;8282225;28;20245;-79
2021/01/01 10:00:15;;;;;;;20.60;18.50;;;;;;;5.93;65.17;97054.44;8281809;28;20697;-79
2021/01/01 10:04:16;;;;;;;17.83;16.03;;;;;;;6.07;64.86;97056.47;8281024;28;20642;-80
2021/01/01 10:08:18;;;;;;;18.07;16.27;;;;;;;5.89;64.88;97052.88;8295002;28;20561;-80
2021/01/01 10:12:20;;;;;;;17.67;15.90;;;;;;;6.12;65.24;97051.16;8311971;28;20213;-80
2021/01/01 10:16:23;;;;;;;17.40;15.70;;;;;;;6.12;65.03;97040.88;8313556;28;20201;-80
2021/01/01 10:20:24;;;;;;;17.93;16.13;;;;;;;5.99;65.21;97054.22;8312863;28;20228;-80
2021/01/01 10:24:26;;;;;;;18.07;16.27;;;;;;;6.18;65.14;97054.28;8312952;28;20193;-79
2021/01/01 10:28:28;;;;;;;17.83;16.13;;;;;;;6.30;64.99;97050.38;8314042;28;20208;-79
2021/01/01 10:32:30;;;;;;;17.90;16.17;;;;;;;6.31;64.84;97051.22;8319239;28;20558;-80
2021/01/01 10:36:32;;;;;;;18.40;16.70;;;;;;;6.39;64.99;97054.31;8316171;28;20573;-80
2021/01/01 10:40:34;;;;;;;17.67;16.03;;;;;;;6.48;65.20;97045.38;8314899;28;20267;-80
2021/01/01 10:44:37;;;;;;;17.87;16.17;;;;;;;6.50;64.37;97052.13;8318035;28;20233;-80
2021/01/01 10:48:40;;;;;;;17.93;16.23;;;;;;;6.37;64.85;97056.09;8316869;28;20216;-79
2021/01/01 10:52:41;;;;;;;17.60;15.97;;;;;;;6.33;64.65;97055.41;8318772;28;20201;-79
2021/01/01 10:56:45;;;;;;;16.40;14.87;;;;;;;6.41;64.56;97047.34;8316467;28;20201;-80
2021/01/01 11:00:56;;;;;;;17.43;15.77;;;;;;;6.43;64.68;97046.38;8319983;28;20224;-79
2021/01/01 11:04:59;;;;;;;16.67;15.07;;;;;;;6.46;64.78;97048.84;8311073;28;20216;-79
2021/01/01 11:09:01;;;;;;;17.97;16.20;;;;;;;6.45;64.66;97034.31;8308947;28;20216;-79
2021/01/01 11:13:04;;;;;;;18.83;16.93;;;;;;;6.38;65.06;97040.63;8309368;28;20244;-79
2021/01/01 12:22:19;;;;;;;13.53;12.23;;;;;;;9.54;55.99;97013.28;8306266;28;20193;-77
2021/01/01 12:26:21;;;;;;;13.80;12.37;;;;;;;8.64;57.98;97006.00;8276801;28;20197;-78
2021/01/01 12:30:37;;;;;;;12.53;11.30;;;;;;;8.33;58.70;97002.41;8303122;28;20205;-78
2021/01/01 12:34:39;;;;;;;12.27;11.00;;;;;;;8.11;59.52;96999.22;8304704;28;20671;-79
2021/01/01 12:38:41;;;;;;;10.77;9.67;;;;;;;8.12;59.58;97011.22;8309186;28;20232;-80
2021/01/01 12:42:42;;;;;;;11.53;9.33;;;;;;;8.02;60.15;97018.59;8312265;28;20193;-79
2021/01/01 12:46:45;;;;;;;9.83;8.83;;;;;;;7.86;60.31;97023.63;8313444;28;20201;-79
2021/01/01 12:50:47;;;;;;;8.87;7.97;;;;;;;7.42;60.31;97026.59;8308777;28;20197;-79
2021/01/01 12:54:48;;;;;;;8.90;7.70;;;;;;;7.34;60.26;97023.53;8302604;28;20207;-78
2021/01/01 12:58:50;;;;;;;8.87;8.00;;;;;;;7.09;60.12;97028.97;8302146;28;20221;-78
2021/01/01 13:02:54;;;;;;;8.43;7.63;;;;;;;7.22;60.18;97028.34;8301513;28;20197;-79
2021/01/01 13:06:55;;;;;;;8.80;7.90;;;;;;;7.27;60.52;97029.88;8304643;28;20233;-78
2021/01/01 13:10:57;;;;;;;8.53;7.73;;;;;;;7.14;60.71;97035.59;8308831;28;20209;-79
2021/01/01 13:14:59;;;;;;;9.63;8.13;;;;;;;7.16;60.47;97038.94;8312274;28;20241;-79
2021/01/01 13:19:01;;;;;;;9.00;8.10;;;;;;;7.21;60.48;97039.53;8312612;28;20229;-79
2021/01/01 13:23:03;;;;;;;8.53;7.73;;;;;;;7.24;60.32;97041.97;8313850;28;20265;-79
2021/01/01 13:27:06;;;;;;;11.10;9.90;;;;;;;7.21;59.88;97033.56;8314289;28;20234;-79
2021/01/01 13:31:07;;;;;;;13.93;11.43;;;;;;;7.17;60.42;97035.44;8313730;28;20213;-79
2021/01/01 13:35:11;;;;;;;11.00;9.57;;;;;;;7.04;60.32;97037.75;8314443;28;20557;-78
2021/01/01 13:39:13;;;;;;;12.20;11.00;;;;;;;7.73;58.44;97053.47;8307796;28;20501;-79
2021/01/01 13:43:15;;;;;;;13.13;10.23;;;;;;;7.32;59.69;97057.09;8312261;28;20205;-79
2021/01/01 13:47:16;;;;;;;10.03;9.03;;;;;;;7.22;59.75;97059.25;8310888;28;20205;-79
2021/01/01 13:51:26;;;;;;;13.00;10.90;;;;;;;7.24;58.70;97059.19;8316007;28;20637;-78
2021/01/01 13:55:28;;;;;;;12.20;10.53;;;;;;;7.27;59.23;97064.19;8312743;28;20232;-79
2021/01/01 13:59:30;;;;;;;16.83;9.70;;;;;;;7.24;58.85;97072.06;8310731;28;20228;-78
2021/01/01 14:03:31;;;;;;;10.00;7.47;;;;;;;7.14;58.37;97070.78;8309806;28;20209;-78
2021/01/01 14:07:42;;;;;;;11.17;8.03;;;;;;;7.11;58.71;97076.91;8309144;28;20216;-78
2021/01/01 14:11:49;;;;;;;7.53;6.83;;;;;;;7.14;59.13;97084.53;8310478;28;20217;-79
2021/01/01 14:15:51;;;;;;;7.70;6.90;;;;;;;7.12;58.82;97086.34;8306149;28;20233;-78
2021/01/01 14:19:53;;;;;;;7.30;6.60;;;;;;;6.99;58.75;97088.59;8308195;28;20229;-79
2021/01/01 14:23:56;;;;;;;8.00;7.20;;;;;;;6.99;59.08;97092.91;8306896;28;20198;-79
2021/01/01 14:28:00;;;;;;;13.47;12.07;;;;;;;6.96;59.15;97083.56;8308123;28;20620;-79
2021/01/01 14:32:02;;;;;;;9.60;8.70;;;;;;;7.06;58.82;97089.16;8306987;28;20209;-79
2021/01/01 14:36:04;;;;;;;8.47;7.67;;;;;;;7.01;59.55;97096.25;8311947;28;20205;-79
2021/01/01 14:40:07;;;;;;;7.67;6.97;;;;;;;7.00;59.53;97097.16;8317396;28;20579;-79
2021/01/01 14:44:09;;;;;;;8.45;7.68;;;;;;;7.31;58.21;97096.66;8311216;28;20421;-79
2021/01/01 14:48:11;;;;;;;8.47;7.63;;;;;;;6.97;58.60;97105.03;8315227;28;20204;-79
2021/01/01 14:52:13;;;;;;;9.73;8.77;;;;;;;6.92;58.53;97109.53;8315137;28;20209;-79
2021/01/01 14:56:16;;;;;;;12.30;10.37;;;;;;;6.92;58.44;97105.22;8310585;28;20197;-79
2021/01/01 15:00:19;;;;;;;14.63;12.00;;;;;;;6.88;58.58;97118.28;8308928;28;20448;-79
2021/01/01 15:04:22;;;;;;;10.20;9.20;;;;;;;6.88;57.91;97120.88;8310744;28;20205;-79
2021/01/01 15:08:23;;;;;;;12.05;10.95;;;;;;;6.97;57.97;97128.19;8309898;28;20915;-79
2021/01/01 15:12:26;;;;;;;11.43;10.25;;;;;;;7.13;57.62;97123.19;8309012;28;20421;-79
2021/01/01 15:16:28;;;;;;;12.20;10.90;;;;;;;6.90;57.61;97127.59;8290330;28;20200;-79
2021/01/01 15:20:29;;;;;;;10.33;9.13;;;;;;;6.84;58.70;97133.84;8310288;28;20228;-79
2021/01/01 15:24:31;;;;;;;7.00;6.30;;;;;;;6.84;58.45;97136.44;8310610;28;20207;-79
2021/01/01 15:28:34;;;;;;;8.07;7.37;;;;;;;7.27;57.59;97135.47;8306463;28;20429;-79
2021/01/01 15:32:35;;;;;;;8.47;7.33;;;;;;;6.90;58.81;97142.22;8311718;28;20212;-79
2021/01/01 15:36:38;;;;;;;8.87;7.57;;;;;;;6.78;59.61;97130.72;8311946;28;20197;-79
2021/01/01 15:40:40;;;;;;;10.57;9.47;;;;;;;6.82;59.60;97130.50;8311088;28;20217;-79
2021/01/01 15:44:42;;;;;;;10.30;9.10;;;;;;;6.79;60.03;97135.78;8310653;28;20205;-79
2021/01/01 15:48:44;;;;;;;11.80;9.13;;;;;;;6.74;60.14;97135.16;8310237;28;20197;-79
2021/01/01 15:52:46;;;;;;;11.07;9.97;;;;;;;6.71;60.61;97140.41;8297578;28;20194;-79
2021/01/01 15:56:49;;;;;;;11.90;10.70;;;;;;;6.67;60.13;97143.19;8310675;28;20205;-79
2021/01/01 16:00:52;;;;;;;11.10;9.97;;;;;;;6.64;60.71;97141.56;8306970;28;20233;-79
2021/01/01 16:04:54;;;;;;;10.90;9.83;;;;;;;6.68;61.05;97144.84;8307752;28;20566;-79
2021/01/01 16:08:56;;;;;;;9.27;8.30;;;;;;;6.67;60.61;97145.78;8307814;28;20732;-80
2021/01/01 16:12:59;;;;;;;13.33;11.93;;;;;;;6.61;60.43;97142.53;8306999;28;20604;-79
2021/01/01 16:17:02;;;;;;;11.47;10.37;;;;;;;6.60;61.63;97150.31;8309811;28;20213;-79
2021/01/01 16:21:05;;;;;;;8.80;7.90;;;;;;;6.57;61.20;97150.47;8311081;28;20225;-79
2021/01/01 16:25:07;;;;;;;8.67;7.77;;;;;;;7.00;59.91;97154.63;8310153;28;20428;-79
2021/01/01 16:29:10;;;;;;;7.77;6.97;;;;;;;6.61;60.79;97160.56;8312655;28;20443;-79
2021/01/01 16:33:12;;;;;;;14.10;12.57;;;;;;;6.63;61.07;97153.59;8312683;28;20204;-79
2021/01/01 16:37:14;;;;;;;50.53;33.77;;;;;;;6.55;61.74;97154.81;8301614;28;20221;-79
2021/01/01 16:41:16;;;;;;;26.73;19.93;;;;;;;6.54;62.26;97153.16;8289169;28;20221;-79
2021/01/01 16:45:17;;;;;;;40.47;29.23;;;;;;;6.53;62.60;97159.19;8300610;28;20208;-79
2021/01/01 16:49:20;;;;;;;22.97;20.40;;;;;;;6.61;61.78;97152.84;8302807;28;20197;-79
2021/01/01 16:53:23;;;;;;;17.67;15.77;;;;;;;6.57;61.68;97164.16;8286745;28;20201;-79
2021/01/01 16:57:24;;;;;;;24.37;21.80;;;;;;;6.52;62.50;97155.78;8300509;28;20220;-79
2021/01/01 17:01:26;;;;;;;14.17;12.70;;;;;;;6.53;61.83;97160.03;8303011;28;20225;-80
2021/01/01 17:05:28;;;;;;;13.30;11.60;;;;;;;6.51;62.36;97158.41;8300611;28;20197;-79
2021/01/01 17:09:31;;;;;;;10.93;9.93;;;;;;;6.46;62.42;97171.47;8289564;28;20204;-79
2021/01/01 17:13:33;;;;;;;14.97;13.37;;;;;;;6.45;62.63;97167.22;8302866;28;20248;-79
2021/01/01 17:17:36;;;;;;;16.83;13.20;;;;;;;6.48;62.44;97174.81;8300323;28;20197;-79
2021/01/01 17:21:38;;;;;;;14.20;12.70;;;;;;;6.34;62.48;97167.66;8300877;28;20232;-79
2021/01/01 17:25:40;;;;;;;12.57;11.30;;;;;;;6.32;62.52;97174.59;8295554;28;20662;-80
2021/01/01 17:29:41;;;;;;;10.73;9.63;;;;;;;6.37;62.57;97177.81;8304893;28;20625;-77
2021/01/01 17:33:43;;;;;;;12.37;11.00;;;;;;;6.33;62.66;97172.88;8281645;28;20201;-78
2021/01/01 17:37:46;;;;;;;14.87;13.23;;;;;;;6.38;62.05;97181.25;8276499;28;20213;-78
2021/01/01 17:41:48;;;;;;;16.97;15.00;;;;;;;6.39;61.80;97180.31;8290909;28;20245;-77
2021/01/01 17:45:50;;;;;;;15.20;12.73;;;;;;;6.33;61.82;97186.56;8307341;28;20548;-78
2021/01/01 17:49:51;;;;;;;14.60;12.03;;;;;;;6.40;61.61;97179.44;8305853;28;20205;-78
2021/01/01 17:53:54;;;;;;;11.00;9.83;;;;;;;6.32;61.52;97191.75;8284583;28;20197;-77
2021/01/01 17:57:56;;;;;;;13.63;10.33;;;;;;;6.23;61.93;97192.97;8305647;28;20205;-77
2021/01/01 18:01:57;;;;;;;14.20;11.13;;;;;;;6.35;61.92;97200.19;8287158;28;20217;-77
2021/01/01 18:06:00;;;;;;;19.37;15.70;;;;;;;6.33;62.00;97194.25;8272939;28;20210;-77
2021/01/01 18:10:03;;;;;;;20.63;17.93;;;;;;;6.25;62.12;97196.31;8281759;28;20205;-77
2021/01/01 18:14:07;;;;;;;26.77;22.10;;;;;;;6.19;61.84;97207.66;8302652;28;20258;-77
2021/01/01 18:18:10;;;;;;;16.13;14.30;;;;;;;6.26;62.09;97211.69;8291032;28;20649;-78
2021/01/01 18:22:12;;;;;;;62.03;52.27;;;;;;;6.23;62.01;97206.66;8295658;28;20413;-77
2021/01/01 18:26:16;;;;;;;22.00;19.50;;;;;;;6.22;62.11;97217.00;8304239;28;20208;-78
2021/01/01 18:30:20;;;;;;;19.50;16.80;;;;;;;6.29;61.30;97227.88;8292551;28;20209;-79
2021/01/01 18:34:27;;;;;;;18.87;16.50;;;;;;;6.29;61.37;97233.03;8281521;28;20225;-78
2021/01/01 18:38:31;;;;;;;13.37;11.83;;;;;;;6.24;61.87;97233.19;8274792;28;20765;-78
2021/01/01 18:42:49;;;;;;;16.70;14.90;;;;;;;6.18;62.07;97225.72;8279863;28;20206;-77
2021/01/01 18:46:53;;;;;;;18.10;16.03;;;;;;;6.22;62.33;97232.41;8285996;28;20198;-77
2021/01/01 18:50:55;;;;;;;14.93;13.43;;;;;;;6.19;61.91;97230.81;8294057;28;20220;-78
2021/01/01 18:54:57;;;;;;;14.43;12.93;;;;;;;6.12;62.13;97238.81;8282742;28;20201;-78
2021/01/01 18:59:05;;;;;;;14.70;13.10;;;;;;;6.18;62.04;97248.84;8284347;28;20208;-77
2021/01/01 19:03:40;;;;;;;15.60;12.63;;;;;;;6.23;61.73;97245.22;8293793;28;20631;-77
2021/01/01 19:07:44;;;;;;;14.87;13.27;;;;;;;6.22;62.00;97258.13;8300161;28;20205;-77
2021/01/01 19:11:46;;;;;;;16.77;14.43;;;;;;;6.17;61.35;97244.59;8286353;28;20222;-77
2021/01/01 19:15:49;;;;;;;15.20;13.60;;;;;;;6.23;61.74;97259.81;8271429;28;20249;-77
2021/01/01 19:19:51;;;;;;;14.23;12.83;;;;;;;6.11;60.77;97263.69;8278901;28;20222;-77
2021/01/01 19:23:53;;;;;;;16.83;15.03;;;;;;;6.15;61.73;97265.25;8284294;28;20201;-77
2021/01/01 19:27:59;;;;;;;19.73;15.83;;;;;;;6.19;62.29;97274.53;8281661;28;20197;-77
2021/01/01 19:32:03;;;;;;;21.83;17.53;;;;;;;6.15;61.58;97266.97;8278517;28;20225;-77
2021/01/01 19:36:24;;;;;;;19.17;16.90;;;;;;;6.13;61.02;97272.19;8288690;28;20594;-77
2021/01/01 19:40:45;;;;;;;24.23;17.33;;;;;;;6.17;61.37;97281.44;8276700;28;20309;-77
2021/01/01 19:45:03;;;;;;;19.10;16.02;;;;;;;6.61;59.23;97278.91;8285425;28;20430;-78
2021/01/01 19:49:41;;;;;;;17.33;15.10;;;;;;;6.26;61.72;97287.97;8288191;28;20281;-77
2021/01/01 19:54:28;;;;;;;35.13;13.83;;;;;;;8.88;90.35;97287.09;8301538;28;20201;-79
2021/01/01 19:58:38;;;;;;;28.47;14.93;;;;;;;9.47;65.20;97288.47;8279094;28;20209;-80
2021/01/01 20:02:54;;;;;;;20.67;16.80;;;;;;;8.64;55.09;97286.53;8298346;28;20445;-77
2021/01/01 20:06:59;;;;;;;14.80;13.00;;;;;;;7.56;57.51;97299.91;8302285;28;20185;-76